METAR Data
IDs: Format: Raw Decoded Include TAF

Data at: 1807 UTC 21 Sep 2018

KTKI 211800Z 17018G26KT 10SM SCT025 SCT055 BKN070 28/23 A2996 RMK AO2 PK WND 17026/1758 T02780233
KTKI 211753Z 17015G21KT 10SM BKN020 BKN036 OVC110 28/24 A2995 RMK AO2 RAB13E32 SLP138 P0000 60000 T02830244 10283 20244 58006
KTKI 211653Z 18013G22KT 10SM BKN025 BKN039 OVC110 28/24 A2998 RMK AO2 SLP145 T02830239
KTKI 211600Z 18011KT 10SM BKN020 BKN028 BKN060 28/24 A2998 RMK AO2 T02830244
KTKI 211553Z 18013KT 10SM BKN014 BKN020 BKN120 28/24 A2998 RMK AO2 SLP147 T02780239
KTKI 211453Z 17009KT 10SM BKN014 BKN020 OVC110 27/24 A2997 RMK AO2 SLP144 T02670244 51006
KTKI 211400Z 15010KT 10SM BKN016 BKN022 BKN027 26/24 A2997 RMK AO2 T02560244
KTKI 211353Z 15009KT 10SM BKN014 BKN065 OVC090 26/24 A2997 RMK AO2 SLP144 T02560244
KTKI 211253Z 14006KT 10SM BKN014 BKN065 OVC085 25/24 A2996 RMK AO2 SLP142 T02500244
KTKI 211153Z 17006KT 10SM OVC012 24/24 A2995 RMK AO2 RAB27E38 SLP137 P0000 60001 70011 T02440239 10244 20233 53004
KTKI 211053Z 16006KT 10SM OVC012 24/23 A2994 RMK AO2 RAE0956 SLP133 P0000 T02440233
KTKI 211034Z AUTO 17006KT 10SM BKN014 OVC060 24/23 A2994 RMK AO2 RAE0956 P0000 T02440233
KTKI 210953Z AUTO 15004KT 10SM -RA OVC065 24/23 A2994 RMK AO2 RAB04 SLP133 P0001 T02390233
KTKI 210853Z AUTO 15004KT 10SM OVC070 23/22 A2994 RMK AO2 RAB17E33 SLP132 P0000 60000 T02330222 56004
KTKI 210753Z AUTO 18006KT 10SM OVC065 23/22 A2994 RMK AO2 SLP134 T02330222
KTKI 210653Z AUTO 17007KT 10SM OVC070 23/22 A2994 RMK AO2 SLP131 T02330222
KTKI 210553Z AUTO 17007KT 10SM FEW070 23/22 A2995 RMK AO2 SLP137 60010 T02330222 10294 20233 403220228 54000
KTKI 210453Z AUTO 19008KT 10SM SCT120 24/23 A2995 RMK AO2 SLP137 T02440228
KTKI 210353Z AUTO 17006KT 10SM CLR 24/23 A2995 RMK AO2 SLP138 T02390228
KTKI 210253Z AUTO 16006KT 10SM CLR 24/23 A2995 RMK AO2 SLP139 60010 T02390228 51022
KTKI 210153Z 16009KT 10SM FEW110 23/22 A2995 RMK AO2 RAE45 SLP139 P0005 T02330222
KTKI 210120Z 18014KT 7SM +RA FEW040 SCT060 BKN095 24/22 A2995 RMK AO2 LTG DSNT E AND SE AND NW P0003 T02390222
KTKI 210053Z 21009KT 7SM VCTS RA SCT100 BKN120 24/22 A2992 RMK AO2 LTG DSNT S AND NW RAB21 SLP129 P0005 T02390217
KTKI 210026Z 20019G25KT 8SM VCTS RA SCT045 BKN055 BKN085 27/23 A2990 RMK AO2 LTG DSNT S-W RAB21 P0000 T02670233
KTKI 202353Z 16006KT 10SM CLR 29/22 A2989 RMK AO2 LTG DSNT S AND SW SLP115 T02940217 10322 20294 55002
KTKI 202253Z 17011KT 10SM CLR 31/22 A2988 RMK AO2 SLP114 T03060217
KTKI 202153Z 14014G21KT 10SM FEW060 32/20 A2989 RMK AO2 SLP113 T03220200
KTKI 202053Z 13010KT 10SM SCT044 32/22 A2989 RMK AO2 SLP116 T03220217 58023
KTKI 201953Z 14009KT 10SM SCT043 31/22 A2992 RMK AO2 SLP125 T03060222
KTKI 201853Z 12012G20KT 10SM FEW040 32/22 A2994 RMK AO2 SLP131 T03220217
KTKI 201753Z 15010KT 10SM SCT038 31/22 A2996 RMK AO2 SLP138 T03060217 10317 20233 58007
KTKI 201653Z 17013G17KT 10SM FEW032 30/22 A2998 RMK AO2 SLP147 T03000217
KTKI 201553Z 16007KT 10SM CLR 29/23 A2999 RMK AO2 SLP147 T02940233
KTKI 201453Z 16008KT 10SM CLR 27/23 A2998 RMK AO2 SLP146 T02720228 52015
KTKI 201353Z 16011KT 10SM CLR 26/23 A2997 RMK AO2 SLP142 T02610228
KTKI 201253Z 16005KT 10SM CLR 24/23 A2995 RMK AO2 SLP137 T02390228
KTKI 201153Z 13005KT 10SM CLR 23/23 A2994 RMK AO2 SLP131 T02330228 10278 20228 53005
KTKI 201053Z AUTO 16004KT 10SM CLR 23/23 A2993 RMK AO2 SLP128 T02330228
KTKI 200953Z AUTO 16005KT 10SM CLR 24/23 A2993 RMK AO2 SLP126 T02390228
KTKI 200853Z AUTO 16004KT 10SM CLR 24/23 A2992 RMK AO2 SLP125 T02440228 56009
KTKI 200753Z AUTO 18009KT 10SM CLR 26/23 A2993 RMK AO2 SLP126 T02610228
KTKI 200653Z AUTO 18007KT 10SM CLR 27/23 A2993 RMK AO2 SLP127 T02670228